createdAt,value
2023-08-12T00:01:45.810Z,52.89
2023-08-12T00:04:15.918Z,52.78
2023-08-12T00:06:43.754Z,53.06
2023-08-12T00:09:16.222Z,52.69
2023-08-12T00:11:43.988Z,51.53
2023-08-12T00:14:11.435Z,52.39
2023-08-12T00:16:38.866Z,53.66
2023-08-12T00:19:06.582Z,53.20
2023-08-12T00:21:33.954Z,52.73
2023-08-12T00:24:01.365Z,52.49
2023-08-12T00:26:29.050Z,51.75
2023-08-12T00:28:56.452Z,52.44
2023-08-12T00:31:24.265Z,52.56
2023-08-12T00:33:51.975Z,52.93
2023-08-12T00:36:19.477Z,52.58
2023-08-12T00:38:46.932Z,53.22
2023-08-12T00:41:14.642Z,53.18
2023-08-12T00:43:42.062Z,52.92
2023-08-12T00:46:09.468Z,53.03
2023-08-12T00:48:37.207Z,53.39
2023-08-12T00:51:04.972Z,53.19
2023-08-12T00:53:32.380Z,52.97
2023-08-12T00:56:00.135Z,53.02
2023-08-12T00:58:27.523Z,53.48
2023-08-12T01:00:54.960Z,52.50
2023-08-12T01:03:22.788Z,53.32
2023-08-12T01:05:50.551Z,53.46
2023-08-12T01:08:18.075Z,53.68
2023-08-12T01:10:52.664Z,54.43
2023-08-12T01:13:59.893Z,54.55
2023-08-12T01:16:31.880Z,53.69
2023-08-12T01:19:00.101Z,54.12
2023-08-12T01:21:27.865Z,53.86
2023-08-12T01:23:56.323Z,53.68
2023-08-12T01:26:23.720Z,53.28
2023-08-12T01:28:51.422Z,54.34
2023-08-12T01:31:28.614Z,53.88
2023-08-12T01:33:59.770Z,53.76
2023-08-12T01:36:28.675Z,53.85
2023-08-12T01:38:56.565Z,54.65
2023-08-12T01:41:24.383Z,54.81
2023-08-12T01:43:51.782Z,54.22
2023-08-12T01:46:19.469Z,53.89
2023-08-12T01:48:46.884Z,54.39
2023-08-12T01:51:14.419Z,54.30
2023-08-12T01:53:42.122Z,54.12
2023-08-12T01:56:09.572Z,54.51
2023-08-12T01:58:37.301Z,54.51
2023-08-12T02:01:05.078Z,54.52
2023-08-12T02:03:32.873Z,55.68
2023-08-12T02:06:00.351Z,55.46
2023-08-12T02:08:27.858Z,56.08
2023-08-12T02:10:55.596Z,56.03
2023-08-12T02:13:23.494Z,55.12
2023-08-12T02:15:50.953Z,56.58
2023-08-12T02:18:18.650Z,57.57
2023-08-12T02:20:48.133Z,56.90
2023-08-12T02:23:15.576Z,56.72
2023-08-12T02:25:43.239Z,56.35
2023-08-12T02:28:10.679Z,56.78
2023-08-12T02:30:38.090Z,55.99
2023-08-12T02:33:05.803Z,55.82
2023-08-12T02:35:33.745Z,55.86
2023-08-12T02:38:01.183Z,55.88
2023-08-12T02:40:30.442Z,57.05
2023-08-12T02:42:57.878Z,57.67
2023-08-12T02:45:25.398Z,56.65
2023-08-12T02:47:53.091Z,56.65
2023-08-12T02:50:20.637Z,56.66
2023-08-12T02:52:48.026Z,57.46
2023-08-12T02:55:15.775Z,57.28
2023-08-12T02:57:43.202Z,57.06
2023-08-12T03:00:11.751Z,56.90
2023-08-12T03:02:39.525Z,56.88
2023-08-12T03:05:07.401Z,56.85
2023-08-12T03:07:34.812Z,57.01
2023-08-12T03:10:02.765Z,57.78
2023-08-12T03:12:30.441Z,56.87
2023-08-12T03:14:57.884Z,56.35
2023-08-12T03:17:26.306Z,57.22
2023-08-12T03:19:55.393Z,56.98
2023-08-12T03:22:22.831Z,56.50
2023-08-12T03:24:50.576Z,57.79
2023-08-12T03:27:18.127Z,58.71
2023-08-12T03:29:45.842Z,57.82
2023-08-12T03:32:13.785Z,58.64
2023-08-12T03:34:41.237Z,58.34
2023-08-12T03:37:08.936Z,58.96
2023-08-12T03:39:36.774Z,59.70
2023-08-12T03:42:04.222Z,59.50
2023-08-12T03:44:31.660Z,59.99
2023-08-12T03:46:59.397Z,59.54
2023-08-12T03:49:27.164Z,58.31
2023-08-12T03:51:54.646Z,57.03
2023-08-12T03:54:22.369Z,57.65
2023-08-12T03:56:49.811Z,58.47
2023-08-12T03:59:18.157Z,58.14
2023-08-12T04:01:45.842Z,57.83
2023-08-12T04:04:14.522Z,57.60
2023-08-12T04:06:42.322Z,58.60
2023-08-12T04:09:09.731Z,58.99
2023-08-12T04:11:37.529Z,58.46
2023-08-12T04:14:05.055Z,57.80
2023-08-12T04:16:32.522Z,57.90
2023-08-12T04:19:00.274Z,56.70
2023-08-12T04:21:27.752Z,57.83
2023-08-12T04:23:55.218Z,57.35
2023-08-12T04:26:23.684Z,56.99
2023-08-12T04:28:51.114Z,56.68
2023-08-12T04:31:18.918Z,56.02
2023-08-12T04:33:47.166Z,55.29
2023-08-12T04:36:15.634Z,54.86
2023-08-12T04:38:43.154Z,55.34
2023-08-12T04:41:11.114Z,56.72
2023-08-12T04:43:38.708Z,56.42
2023-08-12T04:46:06.144Z,54.85
2023-08-12T04:48:33.893Z,55.51
2023-08-12T04:51:04.079Z,56.28
2023-08-12T04:53:31.600Z,56.57
2023-08-12T04:55:59.397Z,56.08
2023-08-12T04:58:27.678Z,55.12
2023-08-12T05:00:55.125Z,54.78
2023-08-12T05:03:23.079Z,54.50
2023-08-12T05:05:52.150Z,54.29
2023-08-12T05:08:20.193Z,52.51
2023-08-12T05:10:49.462Z,53.21
2023-08-12T05:13:17.621Z,53.30
2023-08-12T05:15:48.355Z,52.54
2023-08-12T05:18:16.436Z,51.97
2023-08-12T05:20:46.484Z,52.22
2023-08-12T05:23:14.688Z,50.21
2023-08-12T05:25:43.272Z,50.54
2023-08-12T05:28:10.765Z,50.14
2023-08-12T05:30:38.793Z,48.52
2023-08-12T05:33:06.624Z,45.33
2023-08-12T05:35:35.168Z,40.57
2023-08-12T05:38:03.011Z,37.86
2023-08-12T05:40:30.657Z,33.38
2023-08-12T05:42:58.103Z,31.98
2023-08-12T05:45:25.605Z,29.06
2023-08-12T05:47:53.431Z,28.39
2023-08-12T05:50:20.955Z,26.62
2023-08-12T05:52:48.490Z,25.70
2023-08-12T05:55:16.252Z,24.32
2023-08-12T05:57:43.689Z,24.23
2023-08-12T06:00:11.575Z,23.84
2023-08-12T06:02:39.602Z,22.12
2023-08-12T06:05:07.919Z,21.64
2023-08-12T06:07:35.392Z,20.88
2023-08-12T06:10:02.883Z,20.55
2023-08-12T06:12:30.665Z,19.74
2023-08-12T06:14:58.094Z,19.15
2023-08-12T06:17:25.655Z,19.19
2023-08-12T06:19:53.348Z,19.68
2023-08-12T06:22:20.763Z,18.69
2023-08-12T06:24:48.172Z,18.69
2023-08-12T06:27:15.851Z,18.98
2023-08-12T06:29:43.305Z,17.96
2023-08-12T06:32:14.169Z,17.90
2023-08-12T06:34:42.605Z,17.49
2023-08-12T06:37:10.025Z,18.02
2023-08-12T06:39:37.490Z,18.99
2023-08-12T06:42:05.652Z,18.19
2023-08-12T06:44:34.128Z,17.84
2023-08-12T06:47:01.514Z,17.29
2023-08-12T06:49:29.173Z,16.87
2023-08-12T06:51:56.566Z,16.50
2023-08-12T06:54:24.128Z,16.04
2023-08-12T06:56:51.813Z,15.96
2023-08-12T06:59:19.323Z,15.66
2023-08-12T07:01:46.790Z,15.55
2023-08-12T07:04:14.554Z,15.18
2023-08-12T07:06:41.988Z,14.77
2023-08-12T07:09:09.363Z,14.73
2023-08-12T07:11:37.049Z,17.78
2023-08-12T07:14:04.674Z,16.04
2023-08-12T07:16:32.053Z,15.89
2023-08-12T07:18:59.685Z,15.47
2023-08-12T07:21:27.163Z,14.90
2023-08-12T07:24:03.246Z,14.67
2023-08-12T07:26:32.402Z,13.99
2023-08-12T07:28:59.809Z,14.61
2023-08-12T07:31:27.349Z,14.34
2023-08-12T07:33:55.073Z,14.41
2023-08-12T07:36:22.483Z,14.71
2023-08-12T07:38:49.889Z,14.26
2023-08-12T07:41:17.559Z,13.51
2023-08-12T07:43:44.995Z,13.92
2023-08-12T07:46:12.445Z,13.61
2023-08-12T07:48:40.094Z,14.08
2023-08-12T07:51:07.499Z,13.53
2023-08-12T07:53:35.675Z,13.14
2023-08-12T07:56:03.423Z,13.85
2023-08-12T07:58:31.132Z,12.86
2023-08-12T08:00:58.565Z,12.28
2023-08-12T08:03:26.294Z,12.37
2023-08-12T08:05:53.728Z,12.64
2023-08-12T08:08:21.414Z,14.37
2023-08-12T08:10:49.112Z,13.66
2023-08-12T08:13:16.639Z,13.82
2023-08-12T08:15:44.204Z,13.13
2023-08-12T08:18:11.997Z,12.43
2023-08-12T08:20:39.485Z,12.68
2023-08-12T08:23:06.874Z,12.41
2023-08-12T08:25:34.574Z,13.98
2023-08-12T08:28:01.951Z,14.37
2023-08-12T08:30:29.423Z,13.63
2023-08-12T08:32:57.152Z,14.69
2023-08-12T08:35:24.624Z,15.71
2023-08-12T08:37:52.015Z,13.29
2023-08-12T08:40:21.831Z,13.13
2023-08-12T08:42:53.054Z,12.85
2023-08-12T08:45:21.783Z,13.08
2023-08-12T08:47:49.229Z,15.92
2023-08-12T08:50:16.669Z,13.60
2023-08-12T08:52:44.533Z,13.40
2023-08-12T08:55:13.928Z,13.81
2023-08-12T08:57:47.327Z,13.03
2023-08-12T09:00:18.097Z,12.86
2023-08-12T09:02:52.004Z,14.12
2023-08-12T09:05:21.682Z,13.58
2023-08-12T09:07:49.288Z,12.73
2023-08-12T09:10:16.696Z,13.20
2023-08-12T09:12:44.526Z,12.76
2023-08-12T09:15:12.000Z,12.28
2023-08-12T09:17:39.887Z,12.95
2023-08-12T09:20:12.775Z,13.63
2023-08-12T09:22:43.529Z,14.61
2023-08-12T09:25:11.221Z,14.18
2023-08-12T09:27:41.520Z,12.81
2023-08-12T09:30:09.600Z,13.35
2023-08-12T09:32:39.431Z,13.71
2023-08-12T09:35:09.935Z,12.96
2023-08-12T09:37:37.603Z,12.75
2023-08-12T09:40:07.208Z,14.35
2023-08-12T09:42:34.586Z,12.68
2023-08-12T09:45:02.497Z,12.25
2023-08-12T09:47:30.010Z,11.56
2023-08-12T09:49:57.454Z,11.76
2023-08-12T09:52:25.156Z,14.76
2023-08-12T09:54:52.542Z,14.36
2023-08-12T09:57:19.964Z,13.51
2023-08-12T09:59:47.671Z,11.88
2023-08-12T10:02:19.254Z,12.47
2023-08-12T10:04:47.127Z,11.21
2023-08-12T10:07:14.663Z,11.68
2023-08-12T10:09:42.102Z,12.75
2023-08-12T10:12:10.387Z,13.09
2023-08-12T10:14:38.722Z,13.97
2023-08-12T10:17:06.905Z,15.04
2023-08-12T10:19:35.187Z,16.42
2023-08-12T10:22:03.743Z,16.63
2023-08-12T10:24:31.227Z,18.78
2023-08-12T10:26:58.854Z,18.07
2023-08-12T10:29:26.310Z,27.73
2023-08-12T10:31:53.801Z,26.11
2023-08-12T10:34:22.724Z,24.57
2023-08-12T10:37:02.038Z,26.43
2023-08-12T10:39:32.847Z,27.70
2023-08-12T10:42:00.383Z,28.06
2023-08-12T10:44:41.034Z,25.28
2023-08-12T10:47:12.192Z,26.10
2023-08-12T10:49:40.399Z,25.76
2023-08-12T10:52:07.808Z,25.18
2023-08-12T10:54:35.456Z,24.45
2023-08-12T10:57:02.769Z,25.94
2023-08-12T10:59:54.562Z,25.73
2023-08-12T11:02:34.832Z,26.40
2023-08-12T11:05:03.345Z,28.15
2023-08-12T11:07:53.268Z,28.63
2023-08-12T11:10:23.591Z,28.10
2023-08-12T11:12:55.435Z,27.75
2023-08-12T11:15:33.735Z,27.56
2023-08-12T11:18:17.710Z,27.54
2023-08-12T11:20:45.336Z,30.43
2023-08-12T11:23:12.960Z,32.98
2023-08-12T11:25:41.112Z,32.11
2023-08-12T11:28:08.703Z,32.28
2023-08-12T11:30:36.464Z,31.65
2023-08-12T11:33:04.338Z,29.74
2023-08-12T11:35:31.827Z,29.42
2023-08-12T11:37:59.828Z,29.73
2023-08-12T11:40:28.223Z,29.80
2023-08-12T11:42:56.020Z,29.33
2023-08-12T11:45:25.212Z,30.47
2023-08-12T11:47:56.626Z,28.60
2023-08-12T11:50:25.826Z,28.72
2023-08-12T11:52:54.136Z,29.00
2023-08-12T11:55:21.562Z,29.28
2023-08-12T11:57:49.206Z,31.99
2023-08-12T12:00:19.568Z,31.00
2023-08-12T12:02:54.043Z,30.60
2023-08-12T12:05:29.148Z,30.61
2023-08-12T12:07:56.634Z,29.03
2023-08-12T12:10:34.311Z,28.97
2023-08-12T12:13:04.651Z,28.16
2023-08-12T12:15:32.950Z,29.21
2023-08-12T12:18:00.435Z,27.84
2023-08-12T12:20:30.425Z,30.15
2023-08-12T12:22:58.236Z,30.50
2023-08-12T12:25:25.655Z,32.02
2023-08-12T12:27:54.214Z,33.60
2023-08-12T12:30:21.931Z,33.21
2023-08-12T12:32:49.916Z,31.20
2023-08-12T12:35:17.496Z,33.25
2023-08-12T12:37:45.216Z,33.63
2023-08-12T12:40:12.919Z,32.27
2023-08-12T12:42:40.308Z,32.38
2023-08-12T12:45:08.652Z,31.55
2023-08-12T12:47:36.111Z,31.51
2023-08-12T12:50:03.600Z,33.37
2023-08-12T12:52:31.290Z,34.41
2023-08-12T12:54:58.851Z,33.70
2023-08-12T12:57:26.348Z,32.77
2023-08-12T12:59:54.004Z,33.41
2023-08-12T13:02:21.443Z,32.92
2023-08-12T13:04:50.706Z,31.03
2023-08-12T13:07:18.462Z,32.52
2023-08-12T13:09:46.197Z,33.96
2023-08-12T13:12:13.923Z,32.62
2023-08-12T13:14:41.821Z,31.80
2023-08-12T13:17:09.236Z,31.11
2023-08-12T13:19:36.671Z,31.59
2023-08-12T13:22:04.765Z,31.00
2023-08-12T13:24:32.307Z,30.60
2023-08-12T13:27:00.548Z,29.83
2023-08-12T13:29:28.356Z,30.71
2023-08-12T13:31:55.775Z,32.77
2023-08-12T13:34:23.591Z,31.42
2023-08-12T13:36:51.248Z,31.20
2023-08-12T13:39:19.000Z,31.36
2023-08-12T13:41:46.437Z,30.40
2023-08-12T13:44:14.204Z,30.28
2023-08-12T13:46:41.636Z,29.91
2023-08-12T13:49:09.026Z,30.40
2023-08-12T13:51:36.694Z,31.08
2023-08-12T13:54:04.304Z,30.40
2023-08-12T13:56:32.520Z,30.48
2023-08-12T13:59:00.339Z,30.54
2023-08-12T14:01:27.846Z,30.56
2023-08-12T14:03:55.615Z,30.12
2023-08-12T14:06:23.066Z,29.62
2023-08-12T14:08:50.506Z,30.56
2023-08-12T14:11:18.641Z,29.94
2023-08-12T14:13:46.014Z,30.20
2023-08-12T14:16:13.448Z,30.06
2023-08-12T14:18:41.128Z,31.19
2023-08-12T14:21:08.558Z,32.26
2023-08-12T14:23:35.918Z,31.27
2023-08-12T14:26:04.053Z,31.97
2023-08-12T14:28:31.437Z,33.03
2023-08-12T14:30:59.125Z,33.94
2023-08-12T14:33:27.176Z,33.70
2023-08-12T14:35:55.476Z,33.35
2023-08-12T14:38:22.983Z,32.48
2023-08-12T14:40:50.675Z,32.41
2023-08-12T14:43:18.052Z,32.18
2023-08-12T14:45:46.196Z,31.84
2023-08-12T14:48:16.129Z,31.82
2023-08-12T14:50:43.624Z,32.24
2023-08-12T14:53:11.119Z,32.32
2023-08-12T14:55:38.789Z,32.62
2023-08-12T14:58:06.158Z,32.90
2023-08-12T15:00:34.881Z,32.60
2023-08-12T15:03:03.042Z,32.39
2023-08-12T15:05:30.560Z,31.77
2023-08-12T15:07:58.436Z,32.66
2023-08-12T15:10:26.307Z,31.54
2023-08-12T15:12:53.800Z,32.40
2023-08-12T15:15:21.241Z,31.46
2023-08-12T15:17:49.015Z,31.40
2023-08-12T15:20:16.514Z,31.38
2023-08-12T15:22:43.947Z,32.10
2023-08-12T15:25:11.651Z,32.78
2023-08-12T15:27:39.617Z,32.67
2023-08-12T15:30:07.661Z,32.22
2023-08-12T15:32:36.196Z,31.95
2023-08-12T15:35:03.699Z,32.56
2023-08-12T15:37:31.682Z,32.91
2023-08-12T15:39:59.342Z,33.13
2023-08-12T15:42:26.857Z,32.25
2023-08-12T15:44:54.238Z,31.59
2023-08-12T15:47:21.921Z,33.20
2023-08-12T15:49:49.325Z,32.99
2023-08-12T15:52:16.777Z,33.48
2023-08-12T15:54:44.464Z,32.15
2023-08-12T15:57:12.033Z,30.91
2023-08-12T15:59:39.721Z,31.00
2023-08-12T16:02:10.203Z,31.05
2023-08-12T16:04:38.347Z,32.45
2023-08-12T16:07:05.721Z,33.95
2023-08-12T16:09:33.202Z,33.95
2023-08-12T16:12:00.908Z,31.87
2023-08-12T16:14:28.332Z,32.02
2023-08-12T16:16:55.745Z,31.60
2023-08-12T16:19:23.432Z,31.75
2023-08-12T16:21:50.812Z,32.12
2023-08-12T16:24:18.442Z,33.00
2023-08-12T16:26:46.081Z,34.02
2023-08-12T16:29:13.479Z,36.13
2023-08-12T16:31:40.956Z,35.88
2023-08-12T16:34:08.674Z,35.97
2023-08-12T16:36:36.106Z,36.33
2023-08-12T16:39:04.418Z,35.98
2023-08-12T16:41:32.092Z,37.07
2023-08-12T16:43:59.508Z,37.47
2023-08-12T16:46:26.974Z,37.48
2023-08-12T16:48:54.634Z,37.62
2023-08-12T16:51:22.042Z,37.82
2023-08-12T16:53:49.534Z,38.31
2023-08-12T16:56:17.287Z,38.68
2023-08-12T16:58:44.702Z,39.30
2023-08-12T17:01:12.154Z,39.44
2023-08-12T17:03:40.000Z,39.75
2023-08-12T17:06:07.472Z,40.16
2023-08-12T17:08:34.942Z,40.26
2023-08-12T17:11:07.547Z,40.50
2023-08-12T17:13:34.932Z,40.40
2023-08-12T17:16:02.623Z,39.93
2023-08-12T17:18:30.011Z,40.32
2023-08-12T17:20:57.433Z,41.10
2023-08-12T17:23:25.118Z,41.30
2023-08-12T17:25:52.525Z,41.02
2023-08-12T17:28:19.982Z,40.69
2023-08-12T17:30:47.637Z,40.63
2023-08-12T17:33:15.334Z,40.62
2023-08-12T17:35:43.714Z,41.24
2023-08-12T17:38:11.902Z,41.26
2023-08-12T17:40:39.400Z,41.74
2023-08-12T17:43:06.791Z,42.04
2023-08-12T17:45:34.974Z,42.50
2023-08-12T17:48:05.302Z,42.40
2023-08-12T17:50:32.692Z,42.53
2023-08-12T17:53:00.372Z,42.66
2023-08-12T17:55:28.495Z,43.12
2023-08-12T17:57:56.773Z,43.01
2023-08-12T18:00:24.610Z,43.96
2023-08-12T18:02:52.347Z,43.74
2023-08-12T18:05:19.833Z,44.42
2023-08-12T18:07:47.248Z,44.62
2023-08-12T18:10:14.914Z,44.68
2023-08-12T18:12:42.334Z,44.67
2023-08-12T18:15:10.343Z,44.64
2023-08-12T18:17:38.085Z,44.74
2023-08-12T18:20:06.159Z,44.57
2023-08-12T18:22:33.738Z,44.48
2023-08-12T18:25:01.552Z,44.55
2023-08-12T18:27:29.282Z,44.94
2023-08-12T18:29:57.584Z,45.48
2023-08-12T18:32:27.737Z,45.93
2023-08-12T18:34:57.341Z,46.12
2023-08-12T18:37:24.992Z,46.36
2023-08-12T18:39:52.408Z,46.84
2023-08-12T18:42:20.024Z,47.39
2023-08-12T18:44:47.729Z,46.74
2023-08-12T18:47:16.556Z,47.52
2023-08-12T18:49:44.546Z,47.49
2023-08-12T18:52:12.997Z,48.24
2023-08-12T18:54:41.177Z,48.06
2023-08-12T18:57:08.620Z,47.87
2023-08-12T18:59:36.255Z,49.16
2023-08-12T19:02:04.260Z,49.53
2023-08-12T19:04:31.987Z,50.52
2023-08-12T19:06:59.980Z,50.39
2023-08-12T19:09:27.439Z,50.00
2023-08-12T19:11:54.864Z,50.01
2023-08-12T19:14:22.780Z,50.62
2023-08-12T19:16:50.194Z,49.94
2023-08-12T19:19:17.676Z,50.10
2023-08-12T19:21:45.341Z,51.30
2023-08-12T19:24:12.821Z,51.29
2023-08-12T19:26:41.068Z,51.49
2023-08-12T19:29:08.730Z,51.02
2023-08-12T19:31:36.221Z,51.08
2023-08-12T19:34:03.960Z,50.93
2023-08-12T19:36:31.642Z,50.50
2023-08-12T19:38:59.036Z,50.93
2023-08-12T19:41:28.617Z,50.90
2023-08-12T19:43:59.832Z,50.90
2023-08-12T19:46:27.385Z,52.02
2023-08-12T19:48:55.159Z,51.45
2023-08-12T19:51:23.128Z,51.89
2023-08-12T19:53:50.527Z,52.28
2023-08-12T19:56:17.944Z,53.81
2023-08-12T19:58:45.572Z,52.99
2023-08-12T20:01:13.037Z,53.81
2023-08-12T20:03:40.781Z,52.80
2023-08-12T20:06:11.479Z,52.80
2023-08-12T20:08:38.904Z,53.31
2023-08-12T20:11:06.623Z,53.65
2023-08-12T20:13:34.034Z,53.92
2023-08-12T20:16:01.674Z,55.36
2023-08-12T20:18:29.388Z,55.30
2023-08-12T20:20:56.765Z,55.51
2023-08-12T20:23:24.195Z,55.82
2023-08-12T20:25:51.868Z,55.43
2023-08-12T20:28:19.269Z,54.25
2023-08-12T20:30:47.422Z,54.37
2023-08-12T20:33:15.187Z,54.34
2023-08-12T20:35:43.382Z,54.61
2023-08-12T20:38:10.857Z,55.94
2023-08-12T20:40:38.529Z,55.74
2023-08-12T20:43:05.956Z,56.56
2023-08-12T20:45:33.387Z,55.95
2023-08-12T20:48:01.139Z,55.88
2023-08-12T20:50:28.581Z,54.98
2023-08-12T20:52:55.985Z,55.17
2023-08-12T20:55:23.670Z,55.49
2023-08-12T20:57:51.308Z,56.58
2023-08-12T21:00:18.938Z,57.56
2023-08-12T21:02:46.790Z,57.44
2023-08-12T21:05:14.351Z,56.28
2023-08-12T21:07:42.002Z,56.80
2023-08-12T21:10:10.767Z,56.11
2023-08-12T21:12:38.671Z,57.15
2023-08-12T21:15:06.541Z,57.09
2023-08-12T21:17:34.239Z,57.21
2023-08-12T21:20:01.646Z,57.51
2023-08-12T21:22:29.132Z,57.67
2023-08-12T21:24:56.799Z,57.27
2023-08-12T21:27:24.311Z,57.03
2023-08-12T21:29:52.110Z,55.95
2023-08-12T21:32:19.981Z,57.50
2023-08-12T21:34:47.414Z,57.53
2023-08-12T21:37:15.741Z,58.32
2023-08-12T21:39:43.384Z,57.71
2023-08-12T21:42:10.875Z,57.53
2023-08-12T21:44:38.267Z,56.90
2023-08-12T21:47:06.800Z,57.03
2023-08-12T21:49:34.215Z,57.04
2023-08-12T21:52:01.624Z,57.40
2023-08-12T21:54:29.375Z,57.09
2023-08-12T21:56:57.112Z,57.14
2023-08-12T21:59:24.539Z,57.69
2023-08-12T22:01:52.201Z,58.14
2023-08-12T22:04:19.870Z,57.06
2023-08-12T22:06:47.276Z,57.53
2023-08-12T22:09:14.757Z,57.80
2023-08-12T22:11:42.424Z,57.02
2023-08-12T22:14:09.805Z,58.14
2023-08-12T22:16:37.292Z,57.71
2023-08-12T22:19:05.467Z,57.02
2023-08-12T22:21:32.871Z,58.36
2023-08-12T22:24:00.355Z,58.76
2023-08-12T22:26:28.047Z,58.44
2023-08-12T22:28:55.467Z,58.42
2023-08-12T22:31:22.893Z,58.03
2023-08-12T22:33:50.584Z,57.71
2023-08-12T22:36:18.004Z,57.95
2023-08-12T22:38:47.913Z,58.66
2023-08-12T22:41:15.600Z,57.84
2023-08-12T22:43:43.014Z,56.52
2023-08-12T22:46:10.468Z,57.70
2023-08-12T22:48:38.289Z,57.66
2023-08-12T22:51:05.710Z,56.80
2023-08-12T22:53:33.137Z,58.40
2023-08-12T22:56:00.894Z,57.96
2023-08-12T22:58:28.313Z,57.93
2023-08-12T23:00:55.735Z,58.86
2023-08-12T23:03:23.399Z,58.42
2023-08-12T23:05:50.853Z,58.07
2023-08-12T23:08:18.320Z,58.23
2023-08-12T23:10:45.982Z,57.68
2023-08-12T23:13:13.382Z,58.75
2023-08-12T23:15:43.383Z,59.21
2023-08-12T23:18:11.054Z,57.81
2023-08-12T23:20:38.472Z,59.02
2023-08-12T23:23:05.844Z,58.03
2023-08-12T23:25:33.552Z,59.03
2023-08-12T23:28:00.980Z,58.82
2023-08-12T23:30:28.409Z,59.54
2023-08-12T23:32:56.178Z,59.66
2023-08-12T23:35:23.578Z,59.23
2023-08-12T23:37:50.991Z,58.78
2023-08-12T23:40:18.633Z,59.79
2023-08-12T23:42:46.086Z,60.07
2023-08-12T23:45:13.625Z,58.96
2023-08-12T23:47:44.000Z,60.15
2023-08-12T23:50:14.491Z,60.51
2023-08-12T23:52:42.192Z,60.31
2023-08-12T23:55:09.932Z,60.06
2023-08-12T23:57:37.342Z,59.72
